createdAt,value
2023-03-10T00:00:55.502Z,23.73
2023-03-10T00:03:24.063Z,20.43
2023-03-10T00:05:54.133Z,22.73
2023-03-10T00:08:22.772Z,22.23
2023-03-10T00:10:51.311Z,21.87
2023-03-10T00:13:20.620Z,21.30
2023-03-10T00:15:50.525Z,21.33
2023-03-10T00:18:18.564Z,20.57
2023-03-10T00:20:47.488Z,21.63
2023-03-10T00:23:17.324Z,21.23
2023-03-10T00:25:46.039Z,22.17
2023-03-10T00:28:14.577Z,21.83
2023-03-10T00:30:43.155Z,22.30
2023-03-10T00:33:11.852Z,21.73
2023-03-10T00:35:40.347Z,21.53
2023-03-10T00:38:08.777Z,21.00
2023-03-10T00:40:39.542Z,20.03
2023-03-10T00:43:08.096Z,20.37
2023-03-10T00:45:37.189Z,19.27
2023-03-10T00:48:05.809Z,22.37
2023-03-10T00:50:34.369Z,23.10
2023-03-10T00:53:02.808Z,24.33
2023-03-10T00:55:30.942Z,25.20
2023-03-10T00:58:00.584Z,24.47
2023-03-10T01:00:29.071Z,25.03
2023-03-10T01:02:57.541Z,25.13
2023-03-10T01:05:29.088Z,24.83
2023-03-10T01:07:57.551Z,24.20
2023-03-10T01:10:26.698Z,22.83
2023-03-10T01:12:55.262Z,21.80
2023-03-10T01:15:25.331Z,22.73
2023-03-10T01:17:53.840Z,22.70
2023-03-10T01:20:22.461Z,23.10
2023-03-10T01:22:50.855Z,23.20
2023-03-10T01:25:19.140Z,22.90
2023-03-10T01:27:47.781Z,24.97
2023-03-10T01:30:16.774Z,22.67
2023-03-10T01:32:47.516Z,22.60
2023-03-10T01:35:16.043Z,24.63
2023-03-10T01:37:44.693Z,24.27
2023-03-10T01:40:16.572Z,23.10
2023-03-10T01:42:45.398Z,23.17
2023-03-10T01:45:47.078Z,22.37
2023-03-10T01:48:19.189Z,21.20
2023-03-10T01:50:50.931Z,23.30
2023-03-10T01:53:21.280Z,23.50
2023-03-10T01:55:54.297Z,23.47
2023-03-10T01:58:26.003Z,23.60
2023-03-10T02:00:55.785Z,22.30
2023-03-10T02:03:29.652Z,20.97
2023-03-10T02:06:01.090Z,21.67
2023-03-10T02:08:35.108Z,19.73
2023-03-10T02:11:03.979Z,19.30
2023-03-10T02:13:32.617Z,20.27
2023-03-10T02:16:01.238Z,18.50
2023-03-10T02:18:32.915Z,17.97
2023-03-10T02:21:09.224Z,19.20
2023-03-10T02:23:58.734Z,17.90
2023-03-10T02:26:38.844Z,18.47
2023-03-10T02:29:12.546Z,19.13
2023-03-10T02:31:41.262Z,18.47
2023-03-10T02:34:09.604Z,18.43
2023-03-10T02:36:37.669Z,18.10
2023-03-10T02:39:06.988Z,18.53
2023-03-10T02:41:38.143Z,20.13
2023-03-10T02:44:13.021Z,17.50
2023-03-10T02:46:41.731Z,17.67
2023-03-10T02:49:11.804Z,18.40
2023-03-10T02:51:46.284Z,19.13
2023-03-10T02:54:20.287Z,19.57
2023-03-10T02:56:49.728Z,18.50
2023-03-10T02:59:20.415Z,18.97
2023-03-10T03:01:52.720Z,18.53
2023-03-10T03:04:22.110Z,18.50
2023-03-10T03:06:50.597Z,18.27
2023-03-10T03:09:19.233Z,20.70
2023-03-10T03:11:48.498Z,20.07
2023-03-10T03:14:19.752Z,19.70
2023-03-10T03:16:50.183Z,20.10
2023-03-10T03:19:19.792Z,21.43
2023-03-10T03:21:50.090Z,20.80
2023-03-10T03:24:21.160Z,20.33
2023-03-10T03:26:50.001Z,19.60
2023-03-10T03:29:23.152Z,20.37
2023-03-10T03:31:52.006Z,18.37
2023-03-10T03:34:23.865Z,20.27
2023-03-10T03:36:54.967Z,18.93
2023-03-10T03:39:30.051Z,19.33
2023-03-10T03:42:01.579Z,20.23
2023-03-10T03:44:40.440Z,18.73
2023-03-10T03:47:10.651Z,20.17
2023-03-10T03:49:39.998Z,19.53
2023-03-10T03:52:10.070Z,20.73
2023-03-10T03:54:38.666Z,18.07
2023-03-10T03:57:07.615Z,19.03
2023-03-10T03:59:40.218Z,19.37
2023-03-10T04:02:08.993Z,18.63
2023-03-10T04:04:37.924Z,20.67
2023-03-10T04:07:09.500Z,19.10
2023-03-10T04:09:40.087Z,19.40
2023-03-10T04:12:09.874Z,18.93
2023-03-10T04:14:45.836Z,18.53
2023-03-10T04:17:16.964Z,20.37
2023-03-10T04:19:51.283Z,19.87
2023-03-10T04:22:26.018Z,17.33
2023-03-10T04:24:55.274Z,19.30
2023-03-10T04:27:23.868Z,19.03
2023-03-10T04:29:53.841Z,18.67
2023-03-10T04:32:23.484Z,18.93
2023-03-10T04:34:52.158Z,19.60
2023-03-10T04:37:21.942Z,19.63
2023-03-10T04:39:50.787Z,19.63
2023-03-10T04:42:19.755Z,18.47
2023-03-10T04:44:48.470Z,20.77
2023-03-10T04:47:18.594Z,20.23
2023-03-10T04:49:47.182Z,19.60
2023-03-10T04:52:16.272Z,20.40
2023-03-10T04:54:46.607Z,21.23
2023-03-10T04:57:18.695Z,21.07
2023-03-10T04:59:47.629Z,19.90
2023-03-10T05:02:20.760Z,20.23
2023-03-10T05:04:49.389Z,20.57
2023-03-10T05:07:17.915Z,19.53
2023-03-10T05:09:49.349Z,21.03
2023-03-10T05:12:17.961Z,21.53
2023-03-10T05:14:46.582Z,20.93
2023-03-10T05:17:15.118Z,20.93
2023-03-10T05:19:46.763Z,20.27
2023-03-10T05:22:15.425Z,19.23
2023-03-10T05:24:44.194Z,20.53
2023-03-10T05:27:15.016Z,21.30
2023-03-10T05:29:45.635Z,21.43
2023-03-10T05:32:20.669Z,20.73
2023-03-10T05:34:51.635Z,23.33
2023-03-10T05:37:20.382Z,23.00
2023-03-10T05:39:49.607Z,20.40
2023-03-10T05:42:21.433Z,19.93
2023-03-10T05:44:52.651Z,22.23
2023-03-10T05:47:21.243Z,22.20
2023-03-10T05:49:52.462Z,21.10
2023-03-10T05:52:20.674Z,21.00
2023-03-10T05:54:48.736Z,21.47
2023-03-10T05:57:16.809Z,21.33
2023-03-10T05:59:44.908Z,20.90
2023-03-10T06:02:13.338Z,22.33
2023-03-10T06:04:41.354Z,22.33
2023-03-10T06:07:10.753Z,19.70
2023-03-10T06:09:38.836Z,20.73
2023-03-10T06:12:07.439Z,20.97
2023-03-10T06:14:35.660Z,21.50
2023-03-10T06:17:03.720Z,22.90
2023-03-10T06:19:31.855Z,21.13
2023-03-10T06:21:59.891Z,21.33
2023-03-10T06:24:30.625Z,21.00
2023-03-10T06:26:58.763Z,22.27
2023-03-10T06:29:26.841Z,21.93
2023-03-10T06:31:55.091Z,21.17
2023-03-10T06:34:23.223Z,23.73
2023-03-10T06:36:51.264Z,22.90
2023-03-10T06:39:19.323Z,21.40
2023-03-10T06:41:51.747Z,23.17
2023-03-10T06:44:19.820Z,21.80
2023-03-10T06:46:48.008Z,22.10
2023-03-10T06:49:16.112Z,22.13
2023-03-10T06:51:44.153Z,22.20
2023-03-10T06:54:12.178Z,21.53
2023-03-10T06:56:40.266Z,21.70
2023-03-10T06:59:09.675Z,21.27
2023-03-10T07:01:37.697Z,21.57
2023-03-10T07:04:06.009Z,20.57
2023-03-10T07:06:34.048Z,21.17
2023-03-10T07:09:02.099Z,21.83
2023-03-10T07:11:30.237Z,21.60
2023-03-10T07:13:58.318Z,21.23
2023-03-10T07:16:27.787Z,19.77
2023-03-10T07:18:55.856Z,18.23
2023-03-10T07:21:23.900Z,19.93
2023-03-10T07:23:51.990Z,19.80
2023-03-10T07:26:20.594Z,20.27
2023-03-10T07:28:48.981Z,21.20
2023-03-10T07:31:18.098Z,20.50
2023-03-10T07:33:47.575Z,18.90
2023-03-10T07:36:17.535Z,20.20
2023-03-10T07:38:46.162Z,20.30
2023-03-10T07:41:17.403Z,19.80
2023-03-10T07:43:45.990Z,19.73
2023-03-10T07:46:15.914Z,19.43
2023-03-10T07:48:44.712Z,19.70
2023-03-10T07:51:14.397Z,20.47
2023-03-10T07:53:42.695Z,19.13
2023-03-10T07:56:12.547Z,18.47
2023-03-10T07:58:41.119Z,20.37
2023-03-10T08:01:15.229Z,19.57
2023-03-10T08:03:44.379Z,19.93
2023-03-10T08:06:19.634Z,20.83
2023-03-10T08:08:47.982Z,20.57
2023-03-10T08:11:16.352Z,20.03
2023-03-10T08:13:45.969Z,18.93
2023-03-10T08:16:15.076Z,20.27
2023-03-10T08:18:43.795Z,19.03
2023-03-10T08:21:12.513Z,18.13
2023-03-10T08:23:41.984Z,18.83
2023-03-10T08:26:13.938Z,18.90
2023-03-10T08:28:42.697Z,17.97
2023-03-10T08:31:12.386Z,19.07
2023-03-10T08:33:41.053Z,19.30
2023-03-10T08:36:12.272Z,18.50
2023-03-10T08:38:42.279Z,17.70
2023-03-10T08:41:15.839Z,18.63
2023-03-10T08:43:44.678Z,18.70
2023-03-10T08:46:14.342Z,18.20
2023-03-10T08:48:43.118Z,17.67
2023-03-10T08:51:13.787Z,18.27
2023-03-10T08:53:46.609Z,17.67
2023-03-10T08:56:15.967Z,19.07
2023-03-10T08:58:44.039Z,18.67
2023-03-10T09:01:12.222Z,18.03
2023-03-10T09:03:41.676Z,17.60
2023-03-10T09:06:10.157Z,16.97
2023-03-10T09:08:39.697Z,19.57
2023-03-10T09:11:09.387Z,17.13
2023-03-10T09:13:37.449Z,17.97
2023-03-10T09:16:05.958Z,18.30
2023-03-10T09:18:34.132Z,18.50
2023-03-10T09:21:02.886Z,18.03
2023-03-10T09:23:32.095Z,19.67
2023-03-10T09:26:00.223Z,18.93
2023-03-10T09:28:29.628Z,18.60
2023-03-10T09:30:57.674Z,19.60
2023-03-10T09:33:25.876Z,19.17
2023-03-10T09:36:08.251Z,18.47
2023-03-10T09:38:37.173Z,18.73
2023-03-10T09:41:20.083Z,19.63
2023-03-10T09:43:58.665Z,19.33
2023-03-10T09:46:31.821Z,19.10
2023-03-10T09:49:06.137Z,18.23
2023-03-10T09:51:34.245Z,18.27
2023-03-10T09:54:26.164Z,20.20
2023-03-10T09:56:55.897Z,19.13
2023-03-10T09:59:32.762Z,19.53
2023-03-10T10:02:03.022Z,18.57
2023-03-10T10:04:36.924Z,20.70
2023-03-10T10:07:14.802Z,19.10
2023-03-10T10:09:48.387Z,19.27
2023-03-10T10:12:18.612Z,19.47
2023-03-10T10:14:56.955Z,19.23
2023-03-10T10:17:47.265Z,20.00
2023-03-10T10:20:23.681Z,18.60
2023-03-10T10:22:51.773Z,20.00
2023-03-10T10:25:23.129Z,19.77
2023-03-10T10:27:53.911Z,18.90
2023-03-10T10:30:35.449Z,19.07
2023-03-10T10:33:05.346Z,19.97
2023-03-10T10:35:36.080Z,20.47
2023-03-10T10:38:06.821Z,19.77
2023-03-10T10:40:37.661Z,20.00
2023-03-10T10:43:07.698Z,20.07
2023-03-10T10:45:40.408Z,20.77
2023-03-10T10:48:34.082Z,20.20
2023-03-10T10:51:02.298Z,19.93
2023-03-10T10:53:34.360Z,20.07
2023-03-10T10:56:06.100Z,21.17
2023-03-10T10:58:36.650Z,19.93
2023-03-10T11:01:08.408Z,21.03
2023-03-10T11:03:38.173Z,20.57
2023-03-10T11:06:15.904Z,20.03
2023-03-10T11:08:51.251Z,19.70
2023-03-10T11:11:30.345Z,19.13
2023-03-10T11:14:14.273Z,21.43
2023-03-10T11:16:54.627Z,20.97
2023-03-10T11:19:30.064Z,21.13
2023-03-10T11:22:05.611Z,20.93
2023-03-10T11:24:41.729Z,19.53
2023-03-10T11:27:17.092Z,21.00
2023-03-10T11:41:50.373Z,18.33
2023-03-10T11:44:29.559Z,19.97
2023-03-10T11:47:05.311Z,21.27
2023-03-10T11:49:38.257Z,20.53
2023-03-10T11:52:13.429Z,20.47
2023-03-10T11:54:45.068Z,20.07
2023-03-10T11:57:18.659Z,20.33
2023-03-10T11:59:51.218Z,20.97
2023-03-10T12:02:24.686Z,20.83
2023-03-10T12:04:59.966Z,21.13
2023-03-10T12:07:32.788Z,20.90
2023-03-10T12:10:04.268Z,21.07
2023-03-10T12:12:34.589Z,21.73
2023-03-10T12:15:05.848Z,20.43
2023-03-10T12:17:34.601Z,23.03
2023-03-10T12:20:12.066Z,21.23
2023-03-10T12:22:42.229Z,21.87
2023-03-10T12:25:43.912Z,22.57
2023-03-10T12:28:24.266Z,21.47
2023-03-10T12:30:56.425Z,21.80
2023-03-10T12:33:48.260Z,21.80
2023-03-10T12:36:34.456Z,22.37
2023-03-10T12:39:23.004Z,20.57
2023-03-10T12:41:53.184Z,21.23
2023-03-10T12:44:35.287Z,20.60
2023-03-10T12:47:16.782Z,21.23
2023-03-10T12:49:51.786Z,21.60
2023-03-10T12:52:28.427Z,20.27
2023-03-10T12:55:08.686Z,21.83
2023-03-10T12:57:42.035Z,21.50
2023-03-10T13:00:21.456Z,20.17
2023-03-10T13:02:54.109Z,21.20
2023-03-10T13:05:25.789Z,20.03
2023-03-10T13:08:00.609Z,21.57
2023-03-10T13:10:31.744Z,21.47
2023-03-10T13:13:03.790Z,20.60
2023-03-10T13:15:33.921Z,20.57
2023-03-10T13:18:16.851Z,19.47
2023-03-10T13:20:44.911Z,20.73
2023-03-10T13:23:22.848Z,19.47
2023-03-10T13:25:55.480Z,19.00
2023-03-10T13:28:23.987Z,20.17
2023-03-10T13:30:52.377Z,19.83
2023-03-10T13:33:25.630Z,20.33
2023-03-10T13:35:54.487Z,20.27
2023-03-10T13:38:25.340Z,21.20
2023-03-10T14:16:16.647Z,17.83
2023-03-10T14:18:44.899Z,17.63
2023-03-10T14:21:33.420Z,18.53
2023-03-10T14:24:06.453Z,17.60
2023-03-10T14:26:34.972Z,17.23
2023-03-10T14:29:04.735Z,16.53
2023-03-10T14:31:36.537Z,18.07
2023-03-10T14:34:04.731Z,17.17
2023-03-10T14:36:32.912Z,17.50
2023-03-10T14:39:01.032Z,17.70
2023-03-10T14:41:30.255Z,17.77
2023-03-10T14:43:59.896Z,19.03
2023-03-10T14:46:28.800Z,16.80
2023-03-10T14:48:58.621Z,19.37
2023-03-10T14:51:35.478Z,18.17
2023-03-10T14:54:05.085Z,17.67
2023-03-10T14:56:34.293Z,17.73
2023-03-10T14:59:02.874Z,18.57
2023-03-10T15:01:32.005Z,17.67
2023-03-10T15:04:01.452Z,18.90
2023-03-10T15:06:29.612Z,17.57
2023-03-10T15:08:57.719Z,17.77
2023-03-10T15:11:37.061Z,18.63
2023-03-10T15:14:13.227Z,18.40
2023-03-10T15:16:41.316Z,18.23
2023-03-10T15:19:18.010Z,17.47
2023-03-10T15:21:46.172Z,17.43
2023-03-10T15:24:15.456Z,18.90
2023-03-10T15:26:43.888Z,17.07
2023-03-10T15:29:15.087Z,19.13
2023-03-10T15:31:43.289Z,18.53
2023-03-10T15:34:12.725Z,16.97
2023-03-10T15:36:40.853Z,18.10
2023-03-10T15:39:10.973Z,19.07
2023-03-10T15:41:40.968Z,18.00
2023-03-10T15:44:10.023Z,18.73
2023-03-10T15:46:38.832Z,17.23
2023-03-10T15:49:07.003Z,16.07
2023-03-10T15:51:36.503Z,16.67
2023-03-10T15:54:04.814Z,16.97
2023-03-10T15:56:33.979Z,16.67
2023-03-10T15:59:02.227Z,17.63
2023-03-10T16:01:30.257Z,17.00
2023-03-10T16:04:01.575Z,17.30
2023-03-10T16:06:29.942Z,16.27
2023-03-10T16:08:59.434Z,16.93
2023-03-10T16:11:27.586Z,17.10
2023-03-10T16:13:55.652Z,16.83
2023-03-10T16:16:25.443Z,16.90
2023-03-10T16:18:54.224Z,16.53
2023-03-10T16:21:22.756Z,16.27
2023-03-10T16:23:50.820Z,16.83
2023-03-10T16:26:22.170Z,16.17
2023-03-10T16:28:52.618Z,17.47
2023-03-10T16:31:22.715Z,16.83
2023-03-10T16:33:52.089Z,15.77
2023-03-10T16:36:21.868Z,17.03
2023-03-10T16:38:50.486Z,15.37
2023-03-10T16:41:20.394Z,16.93
2023-03-10T16:43:48.678Z,16.67
2023-03-10T16:46:20.178Z,16.47
2023-03-10T16:48:49.227Z,15.70
2023-03-10T16:51:29.272Z,17.87
2023-03-10T16:53:59.243Z,15.97
2023-03-10T16:56:30.121Z,16.63
2023-03-10T16:58:58.778Z,16.87
2023-03-10T17:01:27.164Z,16.40
2023-03-10T17:03:56.125Z,18.00
2023-03-10T17:06:26.729Z,15.87
2023-03-10T17:08:55.906Z,16.73
2023-03-10T17:11:26.515Z,18.23
2023-03-10T17:13:58.038Z,17.53
2023-03-10T17:16:28.363Z,17.93
2023-03-10T17:18:57.495Z,17.00
2023-03-10T17:21:27.803Z,17.27
2023-03-10T17:23:56.417Z,17.73
2023-03-10T17:26:24.882Z,17.47
2023-03-10T17:28:53.293Z,17.67
2023-03-10T17:31:26.921Z,16.93
2023-03-10T17:33:55.606Z,17.67
2023-03-10T17:36:24.134Z,16.90
2023-03-10T17:38:54.041Z,17.20
2023-03-10T17:41:22.424Z,18.07
2023-03-10T17:43:50.806Z,18.00
2023-03-10T17:46:21.595Z,17.97
2023-03-10T17:48:52.102Z,17.63
2023-03-10T17:51:22.282Z,17.30
2023-03-10T17:53:52.079Z,16.47
2023-03-10T17:56:21.939Z,17.83
2023-03-10T17:58:50.724Z,17.33
2023-03-10T18:01:20.991Z,18.47
2023-03-10T18:03:50.563Z,18.50
2023-03-10T18:06:20.708Z,17.00
2023-03-10T18:08:49.037Z,16.80
2023-03-10T18:11:18.832Z,16.67
2023-03-10T18:13:47.038Z,16.10
2023-03-10T18:16:18.678Z,16.93
2023-03-10T18:18:47.006Z,17.40
2023-03-10T18:21:17.571Z,17.80
2023-03-10T18:23:46.441Z,17.00
2023-03-10T18:26:16.729Z,17.47
2023-03-10T18:28:45.070Z,18.30
2023-03-10T18:31:22.501Z,17.80
2023-03-10T18:33:50.682Z,18.40
2023-03-10T18:36:23.186Z,18.40
2023-03-10T18:38:51.769Z,18.73
2023-03-10T18:41:21.241Z,19.43
2023-03-10T18:43:49.506Z,18.17
2023-03-10T18:46:17.686Z,18.27
2023-03-10T18:48:45.824Z,18.37
2023-03-10T18:51:14.654Z,17.80
2023-03-10T18:53:45.154Z,18.03
2023-03-10T18:56:13.297Z,18.00
2023-03-10T18:58:41.380Z,18.37
2023-03-10T19:01:11.845Z,18.67
2023-03-10T19:03:40.144Z,17.30
2023-03-10T19:06:09.518Z,17.80
2023-03-10T19:08:38.566Z,17.53
2023-03-10T19:11:08.263Z,18.53
2023-03-10T19:13:40.345Z,16.10
2023-03-10T19:16:12.283Z,16.73
2023-03-10T19:18:40.572Z,16.77
2023-03-10T19:21:09.507Z,17.27
2023-03-10T19:23:38.107Z,16.43
2023-03-10T19:26:08.942Z,17.93
2023-03-10T19:28:37.798Z,17.10
2023-03-10T19:31:10.589Z,17.47
2023-03-10T19:33:39.816Z,18.80
2023-03-10T19:36:11.778Z,18.13
2023-03-10T19:38:40.805Z,19.27
2023-03-10T19:41:14.919Z,18.13
2023-03-10T19:43:43.796Z,18.07
2023-03-10T19:46:14.055Z,17.70
2023-03-10T19:48:42.505Z,16.50
2023-03-10T19:51:17.349Z,17.53
2023-03-10T19:53:45.406Z,16.70
2023-03-10T19:56:18.004Z,15.80
2023-03-10T19:58:46.845Z,16.10
2023-03-10T20:01:15.505Z,16.20
2023-03-10T20:03:44.103Z,16.33
2023-03-10T20:06:12.472Z,16.10
2023-03-10T20:08:40.535Z,15.30
2023-03-10T20:11:11.816Z,16.37
2023-03-10T20:13:41.997Z,15.33
2023-03-10T20:16:11.006Z,14.60
2023-03-10T20:18:39.223Z,13.60
2023-03-10T20:21:08.029Z,14.13
2023-03-10T20:23:36.472Z,14.37
2023-03-10T20:26:06.454Z,14.80
2023-03-10T20:28:35.838Z,15.13
2023-03-10T20:31:05.667Z,15.53
2023-03-10T20:33:35.125Z,15.43
2023-03-10T20:36:03.381Z,15.53
2023-03-10T20:38:31.525Z,14.03
2023-03-10T20:40:59.584Z,15.47
2023-03-10T20:43:28.148Z,15.93
2023-03-10T20:45:56.272Z,16.90
2023-03-10T20:48:25.779Z,17.83
2023-03-10T20:50:55.989Z,17.83
2023-03-10T20:53:24.232Z,16.40
2023-03-10T20:55:52.348Z,17.27
2023-03-10T20:58:20.406Z,17.33
2023-03-10T21:00:49.081Z,16.97
2023-03-10T21:03:17.148Z,17.17
2023-03-10T21:05:46.802Z,16.07
2023-03-10T21:08:14.869Z,17.40
2023-03-10T21:10:44.515Z,17.50
2023-03-10T21:13:12.832Z,16.87
2023-03-10T21:15:41.552Z,16.67
2023-03-10T21:18:09.629Z,16.23
2023-03-10T21:20:37.679Z,16.50
2023-03-10T21:23:07.195Z,15.80
2023-03-10T21:25:35.298Z,15.47
2023-03-10T21:28:03.563Z,14.83
2023-03-10T21:30:33.580Z,14.53
2023-03-10T21:33:01.776Z,14.07
2023-03-10T21:35:34.070Z,14.80
2023-03-10T21:38:02.408Z,14.40
2023-03-10T21:40:31.934Z,14.07
2023-03-10T21:43:02.524Z,13.93
2023-03-10T21:45:33.404Z,13.30
2023-03-10T21:48:03.054Z,14.23
2023-03-10T21:50:31.399Z,12.20
2023-03-10T21:52:59.751Z,12.60
2023-03-10T21:55:29.351Z,12.23
2023-03-10T21:57:59.357Z,12.10
2023-03-10T22:00:27.549Z,12.87
2023-03-10T22:02:55.625Z,13.57
2023-03-10T22:05:24.218Z,12.87
2023-03-10T22:07:53.325Z,12.87
2023-03-10T22:10:21.544Z,13.00
2023-03-10T22:12:50.041Z,14.10
2023-03-10T22:15:22.341Z,13.50
2023-03-10T22:17:51.813Z,14.47
2023-03-10T22:20:22.212Z,14.70
2023-03-10T22:22:50.258Z,14.67
2023-03-10T22:25:18.763Z,14.03
2023-03-10T22:27:50.397Z,14.00
2023-03-10T22:30:20.702Z,13.33
2023-03-10T22:32:49.568Z,13.83
2023-03-10T22:35:19.191Z,13.60
2023-03-10T22:37:47.263Z,12.73
2023-03-10T22:40:17.146Z,13.07
2023-03-10T22:42:46.610Z,12.60
2023-03-10T22:45:20.565Z,12.30
2023-03-10T22:47:49.436Z,11.87
2023-03-10T22:50:21.771Z,12.43
2023-03-10T22:52:50.356Z,12.47
2023-03-10T22:55:20.105Z,11.83
2023-03-10T22:57:48.150Z,12.10
2023-03-10T23:00:20.105Z,12.57
2023-03-10T23:02:50.695Z,12.87
2023-03-10T23:05:18.883Z,12.87
2023-03-10T23:07:47.656Z,13.27
2023-03-10T23:10:18.093Z,14.73
2023-03-10T23:12:46.323Z,14.33
2023-03-10T23:15:24.796Z,15.73
2023-03-10T23:17:56.047Z,17.10
2023-03-10T23:20:27.261Z,18.80
2023-03-10T23:22:56.418Z,19.27
2023-03-10T23:25:26.345Z,20.30
2023-03-10T23:27:54.620Z,20.70
2023-03-10T23:30:23.424Z,22.27
2023-03-10T23:32:52.009Z,22.77
2023-03-10T23:35:23.390Z,22.63
2023-03-10T23:37:51.497Z,23.07
2023-03-10T23:40:21.723Z,23.33
2023-03-10T23:42:49.848Z,21.90
2023-03-10T23:45:20.170Z,20.90
2023-03-10T23:47:48.636Z,19.57
2023-03-10T23:50:18.769Z,19.13
2023-03-10T23:52:48.419Z,17.67
2023-03-10T23:55:19.264Z,16.87
2023-03-10T23:57:47.581Z,16.93
